sensor_id;sensor_type;location;lat;lon;timestamp;pressure;altitude;pressure_sealevel;temperature;humidity
53619;BME280;68717;53.040;18.488;2023-06-14T00:00:11;101507.69;;;16.19;100.00
53619;BME280;68717;53.040;18.488;2023-06-14T00:00:33;101509.41;;;16.20;100.00
53619;BME280;68717;53.040;18.488;2023-06-14T00:01:08;101514.81;;;16.20;100.00
53619;BME280;68717;53.040;18.488;2023-06-14T00:01:29;101512.09;;;16.20;100.00
53619;BME280;68717;53.040;18.488;2023-06-14T00:01:41;101520.22;;;16.20;100.00
53619;BME280;68717;53.040;18.488;2023-06-14T00:01:57;101507.69;;;16.19;100.00
53619;BME280;68717;53.040;18.488;2023-06-14T00:02:10;101516.66;;;16.20;100.00
53619;BME280;68717;53.040;18.488;2023-06-14T00:02:24;101512.25;;;16.19;100.00
53619;BME280;68717;53.040;18.488;2023-06-14T00:02:38;101507.69;;;16.19;100.00
53619;BME280;68717;53.040;18.488;2023-06-14T00:02:51;101508.56;;;16.20;100.00
53619;BME280;68717;53.040;18.488;2023-06-14T00:03:04;101507.69;;;16.19;100.00
53619;BME280;68717;53.040;18.488;2023-06-14T00:03:17;101510.38;;;16.19;100.00
53619;BME280;68717;53.040;18.488;2023-06-14T00:03:30;101507.69;;;16.19;100.00
53619;BME280;68717;53.040;18.488;2023-06-14T00:03:44;101513.97;;;16.20;100.00
53619;BME280;68717;53.040;18.488;2023-06-14T00:03:58;101512.25;;;16.19;100.00
53619;BME280;68717;53.040;18.488;2023-06-14T00:04:11;101506.00;;;16.18;100.00
53619;BME280;68717;53.040;18.488;2023-06-14T00:04:25;101512.25;;;16.19;100.00
53619;BME280;68717;53.040;18.488;2023-06-14T00:04:38;101515.09;;;16.17;100.00
53619;BME280;68717;53.040;18.488;2023-06-14T00:04:53;101504.28;;;16.17;100.00
53619;BME280;68717;53.040;18.488;2023-06-14T00:05:07;101515.09;;;16.17;100.00
53619;BME280;68717;53.040;18.488;2023-06-14T00:05:20;101515.09;;;16.17;100.00
53619;BME280;68717;53.040;18.488;2023-06-14T00:05:35;101515.25;;;16.16;100.00
53619;BME280;68717;53.040;18.488;2023-06-14T00:05:53;101508.84;;;16.17;100.00
53619;BME280;68717;53.040;18.488;2023-06-14T00:06:05;101501.75;;;16.16;100.00
53619;BME280;68717;53.040;18.488;2023-06-14T00:06:19;101513.41;;;16.16;100.00
53619;BME280;68717;53.040;18.488;2023-06-14T00:06:32;101503.44;;;16.17;100.00
53619;BME280;68717;53.040;18.488;2023-06-14T00:06:46;101504.44;;;16.16;100.00
53619;BME280;68717;53.040;18.488;2023-06-14T00:06:58;101504.44;;;16.16;100.00
53619;BME280;68717;53.040;18.488;2023-06-14T00:07:11;101501.75;;;16.16;100.00
53619;BME280;68717;53.040;18.488;2023-06-14T00:07:34;101507.16;;;16.16;100.00
53619;BME280;68717;53.040;18.488;2023-06-14T00:07:47;101505.44;;;16.15;100.00
53619;BME280;68717;53.040;18.488;2023-06-14T00:08:01;101508.97;;;16.15;100.00
53619;BME280;68717;53.040;18.488;2023-06-14T00:08:15;101508.97;;;16.15;100.00
53619;BME280;68717;53.040;18.488;2023-06-14T00:08:28;101506.13;;;16.17;100.00
53619;BME280;68717;53.040;18.488;2023-06-14T00:08:40;101508.00;;;16.16;100.00
53619;BME280;68717;53.040;18.488;2023-06-14T00:08:53;101505.44;;;16.15;100.00
53619;BME280;68717;53.040;18.488;2023-06-14T00:09:06;101505.28;;;16.16;100.00
53619;BME280;68717;53.040;18.488;2023-06-14T00:09:20;101503.56;;;16.15;100.00
53619;BME280;68717;53.040;18.488;2023-06-14T00:09:34;101504.44;;;16.16;100.00
53619;BME280;68717;53.040;18.488;2023-06-14T00:09:47;101508.00;;;16.16;100.00
53619;BME280;68717;53.040;18.488;2023-06-14T00:09:59;101506.28;;;16.15;100.00
53619;BME280;68717;53.040;18.488;2023-06-14T00:10:13;101510.69;;;16.16;100.00
53619;BME280;68717;53.040;18.488;2023-06-14T00:10:27;101506.28;;;16.15;100.00
53619;BME280;68717;53.040;18.488;2023-06-14T00:10:43;101509.84;;;16.16;100.00
53619;BME280;68717;53.040;18.488;2023-06-14T00:10:56;101512.56;;;16.16;100.00
53619;BME280;68717;53.040;18.488;2023-06-14T00:11:09;101517.09;;;16.15;100.00
53619;BME280;68717;53.040;18.488;2023-06-14T00:11:22;101508.97;;;16.15;100.00
53619;BME280;68717;53.040;18.488;2023-06-14T00:11:35;101508.97;;;16.15;100.00
53619;BME280;68717;53.040;18.488;2023-06-14T00:11:48;101506.28;;;16.15;100.00
53619;BME280;68717;53.040;18.488;2023-06-14T00:12:00;101511.69;;;16.15;100.00
53619;BME280;68717;53.040;18.488;2023-06-14T00:12:14;101505.44;;;16.15;100.00
53619;BME280;68717;53.040;18.488;2023-06-14T00:12:26;101501.88;;;16.14;100.00
53619;BME280;68717;53.040;18.488;2023-06-14T00:12:39;101507.28;;;16.14;100.00
53619;BME280;68717;53.040;18.488;2023-06-14T00:12:52;101509.16;;;16.14;100.00
53619;BME280;68717;53.040;18.488;2023-06-14T00:13:05;101505.56;;;16.13;100.00
53619;BME280;68717;53.040;18.488;2023-06-14T00:13:19;101502.03;;;16.13;100.00
53619;BME280;68717;53.040;18.488;2023-06-14T00:13:32;101497.47;;;16.13;100.00
53619;BME280;68717;53.040;18.488;2023-06-14T00:13:45;101505.56;;;16.13;100.00
53619;BME280;68717;53.040;18.488;2023-06-14T00:13:58;101499.19;;;16.14;100.00
53619;BME280;68717;53.040;18.488;2023-06-14T00:14:11;101502.88;;;16.13;100.00
53619;BME280;68717;53.040;18.488;2023-06-14T00:14:24;101498.47;;;16.12;100.00
53619;BME280;68717;53.040;18.488;2023-06-14T00:14:37;101503.88;;;16.12;100.00
53619;BME280;68717;53.040;18.488;2023-06-14T00:14:50;101505.56;;;16.13;100.00
53619;BME280;68717;53.040;18.488;2023-06-14T00:15:03;101513.69;;;16.13;100.00
53619;BME280;68717;53.040;18.488;2023-06-14T00:15:16;101504.72;;;16.13;100.00
53619;BME280;68717;53.040;18.488;2023-06-14T00:15:30;101501.19;;;16.12;100.00
53619;BME280;68717;53.040;18.488;2023-06-14T00:15:43;101503.88;;;16.12;100.00
53619;BME280;68717;53.040;18.488;2023-06-14T00:15:57;101505.88;;;16.10;100.00
53619;BME280;68717;53.040;18.488;2023-06-14T00:16:09;101503.03;;;16.12;100.00
53619;BME280;68717;53.040;18.488;2023-06-14T00:16:22;101502.03;;;16.13;100.00
53619;BME280;68717;53.040;18.488;2023-06-14T00:16:35;101499.50;;;16.11;100.00
53619;BME280;68717;53.040;18.488;2023-06-14T00:16:49;101498.47;;;16.12;100.00
53619;BME280;68717;53.040;18.488;2023-06-14T00:17:02;101494.94;;;16.12;100.00
53619;BME280;68717;53.040;18.488;2023-06-14T00:17:15;101489.50;;;16.12;100.00
53619;BME280;68717;53.040;18.488;2023-06-14T00:17:29;101494.94;;;16.12;100.00
53619;BME280;68717;53.040;18.488;2023-06-14T00:17:42;101485.78;;;16.13;100.00
53619;BME280;68717;53.040;18.488;2023-06-14T00:17:59;101495.78;;;16.12;100.00
53619;BME280;68717;53.040;18.488;2023-06-14T00:18:13;101493.06;;;16.12;100.00
53619;BME280;68717;53.040;18.488;2023-06-14T00:18:27;101492.22;;;16.12;100.00
53619;BME280;68717;53.040;18.488;2023-06-14T00:18:41;101486.81;;;16.12;100.00
53619;BME280;68717;53.040;18.488;2023-06-14T00:18:55;101489.50;;;16.12;100.00
53619;BME280;68717;53.040;18.488;2023-06-14T00:19:08;101484.25;;;16.10;100.00
53619;BME280;68717;53.040;18.488;2023-06-14T00:19:22;101494.09;;;16.11;100.00
53619;BME280;68717;53.040;18.488;2023-06-14T00:19:35;101493.22;;;16.11;100.00
53619;BME280;68717;53.040;18.488;2023-06-14T00:19:49;101485.09;;;16.11;100.00
53619;BME280;68717;53.040;18.488;2023-06-14T00:20:04;101483.25;;;16.11;100.00
53619;BME280;68717;53.040;18.488;2023-06-14T00:20:17;101483.25;;;16.11;100.00
53619;BME280;68717;53.040;18.488;2023-06-14T00:20:32;101482.38;;;16.11;100.00
53619;BME280;68717;53.040;18.488;2023-06-14T00:20:45;101476.13;;;16.10;100.00
53619;BME280;68717;53.040;18.488;2023-06-14T00:20:58;101481.53;;;16.10;100.00
53619;BME280;68717;53.040;18.488;2023-06-14T00:21:11;101474.44;;;16.09;100.00
53619;BME280;68717;53.040;18.488;2023-06-14T00:21:24;101477.16;;;16.09;100.00
53619;BME280;68717;53.040;18.488;2023-06-14T00:21:37;101481.53;;;16.10;100.00
53619;BME280;68717;53.040;18.488;2023-06-14T00:21:50;101476.13;;;16.10;100.00
53619;BME280;68717;53.040;18.488;2023-06-14T00:22:05;101468.03;;;16.10;100.00
53619;BME280;68717;53.040;18.488;2023-06-14T00:22:18;101470.72;;;16.10;100.00
53619;BME280;68717;53.040;18.488;2023-06-14T00:22:31;101475.28;;;16.10;100.00
53619;BME280;68717;53.040;18.488;2023-06-14T00:22:44;101476.13;;;16.10;100.00
53619;BME280;68717;53.040;18.488;2023-06-14T00:22:57;101474.44;;;16.09;100.00
53619;BME280;68717;53.040;18.488;2023-06-14T00:23:10;101470.88;;;16.09;100.00
53619;BME280;68717;53.040;18.488;2023-06-14T00:23:24;101474.44;;;16.09;100.00
53619;BME280;68717;53.040;18.488;2023-06-14T00:23:37;101474.44;;;16.09;100.00
53619;BME280;68717;53.040;18.488;2023-06-14T00:23:50;101472.72;;;16.08;100.00
53619;BME280;68717;53.040;18.488;2023-06-14T00:24:04;101469.03;;;16.09;100.00
53619;BME280;68717;53.040;18.488;2023-06-14T00:24:17;101468.16;;;16.09;100.00
53619;BME280;68717;53.040;18.488;2023-06-14T00:24:29;101470.88;;;16.09;100.00
53619;BME280;68717;53.040;18.488;2023-06-14T00:24:42;101472.59;;;16.10;100.00
53619;BME280;68717;53.040;18.488;2023-06-14T00:24:55;101471.75;;;16.09;100.00
53619;BME280;68717;53.040;18.488;2023-06-14T00:25:09;101467.31;;;16.08;100.00
53619;BME280;68717;53.040;18.488;2023-06-14T00:25:39;101461.91;;;16.08;100.00
53619;BME280;68717;53.040;18.488;2023-06-14T00:25:52;101468.16;;;16.09;100.00
53619;BME280;68717;53.040;18.488;2023-06-14T00:26:04;101463.75;;;16.08;100.00
53619;BME280;68717;53.040;18.488;2023-06-14T00:26:17;101466.47;;;16.08;100.00
53619;BME280;68717;53.040;18.488;2023-06-14T00:26:30;101466.47;;;16.08;100.00
53619;BME280;68717;53.040;18.488;2023-06-14T00:26:43;101464.63;;;16.08;100.00
53619;BME280;68717;53.040;18.488;2023-06-14T00:26:56;101470.03;;;16.08;100.00
53619;BME280;68717;53.040;18.488;2023-06-14T00:27:09;101464.63;;;16.08;100.00
53619;BME280;68717;53.040;18.488;2023-06-14T00:27:22;101460.22;;;16.07;100.00
53619;BME280;68717;53.040;18.488;2023-06-14T00:27:35;101456.50;;;16.08;100.00
53619;BME280;68717;53.040;18.488;2023-06-14T00:27:48;101467.31;;;16.08;100.00
53619;BME280;68717;53.040;18.488;2023-06-14T00:28:01;101463.75;;;16.08;100.00
53619;BME280;68717;53.040;18.488;2023-06-14T00:28:15;101460.22;;;16.07;100.00
53619;BME280;68717;53.040;18.488;2023-06-14T00:28:28;101461.91;;;16.08;100.00
53619;BME280;68717;53.040;18.488;2023-06-14T00:28:40;101467.31;;;16.08;100.00
53619;BME280;68717;53.040;18.488;2023-06-14T00:28:53;101462.75;;;16.09;100.00
53619;BME280;68717;53.040;18.488;2023-06-14T00:29:06;101461.06;;;16.08;100.00
53619;BME280;68717;53.040;18.488;2023-06-14T00:29:19;101461.91;;;16.08;100.00
53619;BME280;68717;53.040;18.488;2023-06-14T00:29:32;101460.22;;;16.07;100.00
53619;BME280;68717;53.040;18.488;2023-06-14T00:29:45;101458.34;;;16.08;100.00
53619;BME280;68717;53.040;18.488;2023-06-14T00:29:57;101458.50;;;16.06;100.00
53619;BME280;68717;53.040;18.488;2023-06-14T00:30:11;101460.22;;;16.07;100.00
53619;BME280;68717;53.040;18.488;2023-06-14T00:30:25;101455.78;;;16.06;100.00
53619;BME280;68717;53.040;18.488;2023-06-14T00:30:37;101459.34;;;16.07;100.00
53619;BME280;68717;53.040;18.488;2023-06-14T00:30:51;101456.81;;;16.05;100.00
53619;BME280;68717;53.040;18.488;2023-06-14T00:31:04;101464.75;;;16.07;100.00
53619;BME280;68717;53.040;18.488;2023-06-14T00:31:18;101456.63;;;16.07;100.00
53619;BME280;68717;53.040;18.488;2023-06-14T00:31:30;101462.22;;;16.05;100.00
53619;BME280;68717;53.040;18.488;2023-06-14T00:31:43;101455.94;;;16.05;100.00
53619;BME280;68717;53.040;18.488;2023-06-14T00:31:56;101456.81;;;16.05;100.00
53619;BME280;68717;53.040;18.488;2023-06-14T00:32:09;101461.34;;;16.05;100.00
53619;BME280;68717;53.040;18.488;2023-06-14T00:32:23;101458.81;;;16.03;100.00
53619;BME280;68717;53.040;18.488;2023-06-14T00:32:38;101456.81;;;16.05;100.00
53619;BME280;68717;53.040;18.488;2023-06-14T00:32:50;101458.81;;;16.03;100.00
53619;BME280;68717;53.040;18.488;2023-06-14T00:33:04;101452.56;;;16.02;100.00
53619;BME280;68717;53.040;18.488;2023-06-14T00:33:17;101459.81;;;16.02;100.00
53619;BME280;68717;53.040;18.488;2023-06-14T00:33:31;101452.69;;;16.01;100.00
53619;BME280;68717;53.040;18.488;2023-06-14T00:33:43;101453.53;;;16.01;100.00
53619;BME280;68717;53.040;18.488;2023-06-14T00:33:56;101460.81;;;16.01;100.00
53619;BME280;68717;53.040;18.488;2023-06-14T00:34:09;101460.81;;;16.01;100.00
53619;BME280;68717;53.040;18.488;2023-06-14T00:34:21;101449.16;;;16.00;100.00
53619;BME280;68717;53.040;18.488;2023-06-14T00:34:34;101459.09;;;16.00;100.00
53619;BME280;68717;53.040;18.488;2023-06-14T00:34:47;101455.56;;;15.99;100.00
53619;BME280;68717;53.040;18.488;2023-06-14T00:34:59;101458.25;;;15.99;100.00
53619;BME280;68717;53.040;18.488;2023-06-14T00:35:14;101459.28;;;15.98;100.00
53619;BME280;68717;53.040;18.488;2023-06-14T00:35:27;101464.50;;;16.00;100.00
53619;BME280;68717;53.040;18.488;2023-06-14T00:35:40;101456.72;;;15.97;100.00
53619;BME280;68717;53.040;18.488;2023-06-14T00:35:53;101455.69;;;15.98;100.00
53619;BME280;68717;53.040;18.488;2023-06-14T00:36:06;101457.56;;;15.97;100.00
53619;BME280;68717;53.040;18.488;2023-06-14T00:36:19;101463.81;;;15.98;100.00
53619;BME280;68717;53.040;18.488;2023-06-14T00:36:31;101454.00;;;15.97;100.00
53619;BME280;68717;53.040;18.488;2023-06-14T00:36:45;101456.72;;;15.97;100.00
53619;BME280;68717;53.040;18.488;2023-06-14T00:36:58;101456.72;;;15.97;100.00
53619;BME280;68717;53.040;18.488;2023-06-14T00:37:10;101455.00;;;15.96;100.00
53619;BME280;68717;53.040;18.488;2023-06-14T00:37:23;101460.41;;;15.96;100.00
53619;BME280;68717;53.040;18.488;2023-06-14T00:37:36;101463.97;;;15.96;100.00
53619;BME280;68717;53.040;18.488;2023-06-14T00:37:48;101457.69;;;15.96;100.00
53619;BME280;68717;53.040;18.488;2023-06-14T00:38:01;101455.88;;;15.96;100.00
53619;BME280;68717;53.040;18.488;2023-06-14T00:38:15;101459.56;;;15.95;100.00
53619;BME280;68717;53.040;18.488;2023-06-14T00:38:27;101457.69;;;15.96;100.00
53619;BME280;68717;53.040;18.488;2023-06-14T00:38:40;101469.53;;;15.95;100.00
53619;BME280;68717;53.040;18.488;2023-06-14T00:38:53;101462.44;;;15.94;100.00
53619;BME280;68717;53.040;18.488;2023-06-14T00:39:05;101465.13;;;15.94;100.00
53619;BME280;68717;53.040;18.488;2023-06-14T00:39:18;101461.56;;;15.93;100.00
53619;BME280;68717;53.040;18.488;2023-06-14T00:39:31;101466.13;;;15.93;100.00
53619;BME280;68717;53.040;18.488;2023-06-14T00:39:44;101468.81;;;15.93;100.00
53619;BME280;68717;53.040;18.488;2023-06-14T00:39:57;101471.53;;;15.93;100.00
53619;BME280;68717;53.040;18.488;2023-06-14T00:40:10;101468.13;;;15.91;100.00
53619;BME280;68717;53.040;18.488;2023-06-14T00:40:23;101464.44;;;15.92;100.00
53619;BME280;68717;53.040;18.488;2023-06-14T00:40:36;101463.72;;;15.90;100.00
53619;BME280;68717;53.040;18.488;2023-06-14T00:40:49;101464.56;;;15.90;100.00
53619;BME280;68717;53.040;18.488;2023-06-14T00:41:02;101474.53;;;15.90;100.00
53619;BME280;68717;53.040;18.488;2023-06-14T00:41:15;101466.56;;;15.88;100.00
53619;BME280;68717;53.040;18.488;2023-06-14T00:41:27;101467.41;;;15.89;100.00
53619;BME280;68717;53.040;18.488;2023-06-14T00:41:41;101470.13;;;15.89;100.00
53619;BME280;68717;53.040;18.488;2023-06-14T00:41:54;101466.56;;;15.88;100.00
53619;BME280;68717;53.040;18.488;2023-06-14T00:42:06;101466.56;;;15.88;100.00
53619;BME280;68717;53.040;18.488;2023-06-14T00:42:25;101470.25;;;15.87;100.00
53619;BME280;68717;53.040;18.488;2023-06-14T00:42:38;101475.66;;;15.87;100.00
53619;BME280;68717;53.040;18.488;2023-06-14T00:42:51;101466.72;;;15.87;100.00
53619;BME280;68717;53.040;18.488;2023-06-14T00:43:04;101467.72;;;15.86;100.00
53619;BME280;68717;53.040;18.488;2023-06-14T00:43:18;101468.56;;;15.86;100.00
53619;BME280;68717;53.040;18.488;2023-06-14T00:43:31;101473.13;;;15.86;100.00
53619;BME280;68717;53.040;18.488;2023-06-14T00:43:43;101467.72;;;15.86;100.00
53619;BME280;68717;53.040;18.488;2023-06-14T00:43:56;101472.28;;;15.85;100.00
53619;BME280;68717;53.040;18.488;2023-06-14T00:44:09;101466.00;;;15.85;100.00
53619;BME280;68717;53.040;18.488;2023-06-14T00:44:21;101466.00;;;15.85;100.00
53619;BME280;68717;53.040;18.488;2023-06-14T00:44:36;101463.31;;;15.85;100.00
53619;BME280;68717;53.040;18.488;2023-06-14T00:44:48;101463.31;;;15.85;100.00
53619;BME280;68717;53.040;18.488;2023-06-14T00:45:01;101460.59;;;15.85;100.00
53619;BME280;68717;53.040;18.488;2023-06-14T00:45:13;101468.72;;;15.85;100.00
53619;BME280;68717;53.040;18.488;2023-06-14T00:45:26;101464.19;;;15.85;100.00
53619;BME280;68717;53.040;18.488;2023-06-14T00:45:39;101465.03;;;15.86;100.00
53619;BME280;68717;53.040;18.488;2023-06-14T00:45:51;101470.44;;;15.86;100.00
53619;BME280;68717;53.040;18.488;2023-06-14T00:46:04;101473.13;;;15.86;100.00
53619;BME280;68717;53.040;18.488;2023-06-14T00:46:18;101466.88;;;15.85;100.00
53619;BME280;68717;53.040;18.488;2023-06-14T00:46:31;101464.19;;;15.85;100.00
53619;BME280;68717;53.040;18.488;2023-06-14T00:46:45;101466.00;;;15.85;100.00
53619;BME280;68717;53.040;18.488;2023-06-14T00:46:58;101468.72;;;15.85;100.00
53619;BME280;68717;53.040;18.488;2023-06-14T00:47:11;101471.41;;;15.85;100.00
53619;BME280;68717;53.040;18.488;2023-06-14T00:47:23;101467.72;;;15.86;100.00
53619;BME280;68717;53.040;18.488;2023-06-14T00:47:37;101465.88;;;15.86;100.00
53619;BME280;68717;53.040;18.488;2023-06-14T00:47:53;101470.44;;;15.86;100.00
53619;BME280;68717;53.040;18.488;2023-06-14T00:48:08;101464.00;;;15.87;100.00
53619;BME280;68717;53.040;18.488;2023-06-14T00:48:22;101465.88;;;15.86;100.00
53619;BME280;68717;53.040;18.488;2023-06-14T00:48:36;101467.72;;;15.86;100.00
53619;BME280;68717;53.040;18.488;2023-06-14T00:48:50;101472.13;;;15.87;100.00
53619;BME280;68717;53.040;18.488;2023-06-14T00:49:03;101470.44;;;15.86;100.00
53619;BME280;68717;53.040;18.488;2023-06-14T00:49:17;101467.72;;;15.86;100.00
53619;BME280;68717;53.040;18.488;2023-06-14T00:49:31;101472.28;;;15.85;100.00
53619;BME280;68717;53.040;18.488;2023-06-14T00:49:45;101470.44;;;15.86;100.00
53619;BME280;68717;53.040;18.488;2023-06-14T00:49:58;101469.59;;;15.85;100.00
53619;BME280;68717;53.040;18.488;2023-06-14T00:50:14;101466.88;;;15.85;100.00
53619;BME280;68717;53.040;18.488;2023-06-14T00:50:27;101468.72;;;15.85;100.00
53619;BME280;68717;53.040;18.488;2023-06-14T00:50:42;101471.41;;;15.85;100.00
53619;BME280;68717;53.040;18.488;2023-06-14T00:50:58;101465.16;;;15.84;100.00
53619;BME280;68717;53.040;18.488;2023-06-14T00:51:13;101462.47;;;15.84;100.00
53619;BME280;68717;53.040;18.488;2023-06-14T00:51:25;101470.56;;;15.84;100.00
53619;BME280;68717;53.040;18.488;2023-06-14T00:51:39;101470.56;;;15.84;100.00
53619;BME280;68717;53.040;18.488;2023-06-14T00:51:52;101469.72;;;15.84;100.00
53619;BME280;68717;53.040;18.488;2023-06-14T00:52:05;101468.00;;;15.82;100.00
53619;BME280;68717;53.040;18.488;2023-06-14T00:52:18;101465.31;;;15.82;100.00
53619;BME280;68717;53.040;18.488;2023-06-14T00:52:32;101460.78;;;15.83;100.00
53619;BME280;68717;53.040;18.488;2023-06-14T00:52:46;101459.91;;;15.82;100.00
53619;BME280;68717;53.040;18.488;2023-06-14T00:53:00;101468.00;;;15.82;100.00
53619;BME280;68717;53.040;18.488;2023-06-14T00:53:13;101463.63;;;15.81;100.00
53619;BME280;68717;53.040;18.488;2023-06-14T00:53:27;101455.50;;;15.81;100.00
53619;BME280;68717;53.040;18.488;2023-06-14T00:53:40;101459.19;;;15.80;100.00
53619;BME280;68717;53.040;18.488;2023-06-14T00:53:58;101456.50;;;15.80;100.00
53619;BME280;68717;53.040;18.488;2023-06-14T00:54:11;101456.50;;;15.80;100.00
53619;BME280;68717;53.040;18.488;2023-06-14T00:54:24;101462.78;;;15.81;100.00
53619;BME280;68717;53.040;18.488;2023-06-14T00:54:36;101456.50;;;15.80;100.00
53619;BME280;68717;53.040;18.488;2023-06-14T00:54:49;101456.50;;;15.80;100.00
53619;BME280;68717;53.040;18.488;2023-06-14T00:55:03;101452.94;;;15.80;100.00
53619;BME280;68717;53.040;18.488;2023-06-14T00:55:15;101456.66;;;15.79;100.00
53619;BME280;68717;53.040;18.488;2023-06-14T00:55:29;101446.69;;;15.79;100.00
53619;BME280;68717;53.040;18.488;2023-06-14T00:55:42;101449.41;;;15.79;100.00
53619;BME280;68717;53.040;18.488;2023-06-14T00:55:55;101454.81;;;15.79;100.00
53619;BME280;68717;53.040;18.488;2023-06-14T00:56:07;101456.66;;;15.79;100.00
53619;BME280;68717;53.040;18.488;2023-06-14T00:56:20;101452.09;;;15.79;100.00
53619;BME280;68717;53.040;18.488;2023-06-14T00:56:35;101446.69;;;15.79;100.00
53619;BME280;68717;53.040;18.488;2023-06-14T00:56:47;101453.97;;;15.79;100.00
53619;BME280;68717;53.040;18.488;2023-06-14T00:57:01;101457.50;;;15.79;100.00
53619;BME280;68717;53.040;18.488;2023-06-14T00:57:14;101457.50;;;15.79;100.00
53619;BME280;68717;53.040;18.488;2023-06-14T00:57:27;101453.09;;;15.78;100.00
53619;BME280;68717;53.040;18.488;2023-06-14T00:57:40;101457.50;;;15.79;100.00
53619;BME280;68717;53.040;18.488;2023-06-14T00:57:54;101451.25;;;15.79;100.00
53619;BME280;68717;53.040;18.488;2023-06-14T00:58:07;101455.78;;;15.78;100.00
53619;BME280;68717;53.040;18.488;2023-06-14T00:58:21;101454.09;;;15.77;100.00
53619;BME280;68717;53.040;18.488;2023-06-14T00:58:35;101455.78;;;15.78;100.00
53619;BME280;68717;53.040;18.488;2023-06-14T00:58:49;101453.09;;;15.78;100.00
53619;BME280;68717;53.040;18.488;2023-06-14T00:59:03;101455.78;;;15.78;100.00
53619;BME280;68717;53.040;18.488;2023-06-14T00:59:16;101447.84;;;15.77;100.00
53619;BME280;68717;53.040;18.488;2023-06-14T00:59:29;101451.41;;;15.77;100.00
53619;BME280;68717;53.040;18.488;2023-06-14T00:59:43;101453.25;;;15.77;100.00
53619;BME280;68717;53.040;18.488;2023-06-14T00:59:56;101454.09;;;15.77;100.00
53619;BME280;68717;53.040;18.488;2023-06-14T01:00:09;101453.25;;;15.77;100.00
53619;BME280;68717;53.040;18.488;2023-06-14T01:00:24;101454.09;;;15.77;100.00
53619;BME280;68717;53.040;18.488;2023-06-14T01:00:37;101459.50;;;15.77;100.00
53619;BME280;68717;53.040;18.488;2023-06-14T01:00:50;101450.56;;;15.77;100.00
53619;BME280;68717;53.040;18.488;2023-06-14T01:01:03;101452.41;;;15.76;100.00
53619;BME280;68717;53.040;18.488;2023-06-14T01:01:16;101449.72;;;15.76;100.00
53619;BME280;68717;53.040;18.488;2023-06-14T01:01:30;101452.41;;;15.76;100.00
53619;BME280;68717;53.040;18.488;2023-06-14T01:01:45;101457.81;;;15.76;100.00
53619;BME280;68717;53.040;18.488;2023-06-14T01:01:58;101457.81;;;15.76;100.00
53619;BME280;68717;53.040;18.488;2023-06-14T01:02:11;101460.53;;;15.76;100.00
53619;BME280;68717;53.040;18.488;2023-06-14T01:02:24;101453.41;;;15.75;100.00
53619;BME280;68717;53.040;18.488;2023-06-14T01:02:37;101457.81;;;15.76;100.00
53619;BME280;68717;53.040;18.488;2023-06-14T01:02:50;101454.25;;;15.76;100.00
53619;BME280;68717;53.040;18.488;2023-06-14T01:03:03;101455.13;;;15.76;100.00
53619;BME280;68717;53.040;18.488;2023-06-14T01:03:17;101456.09;;;15.75;100.00
53619;BME280;68717;53.040;18.488;2023-06-14T01:03:32;101450.69;;;15.75;100.00
53619;BME280;68717;53.040;18.488;2023-06-14T01:03:44;101460.53;;;15.76;100.00
53619;BME280;68717;53.040;18.488;2023-06-14T01:03:58;101455.13;;;15.76;100.00
53619;BME280;68717;53.040;18.488;2023-06-14T01:04:11;101453.41;;;15.75;100.00
53619;BME280;68717;53.040;18.488;2023-06-14T01:04:24;101456.94;;;15.76;100.00
53619;BME280;68717;53.040;18.488;2023-06-14T01:04:37;101459.66;;;15.76;100.00
53619;BME280;68717;53.040;18.488;2023-06-14T01:04:51;101456.09;;;15.75;100.00
53619;BME280;68717;53.040;18.488;2023-06-14T01:05:05;101459.66;;;15.76;100.00
53619;BME280;68717;53.040;18.488;2023-06-14T01:05:21;101456.94;;;15.76;100.00
53619;BME280;68717;53.040;18.488;2023-06-14T01:05:34;101449.84;;;15.75;100.00
53619;BME280;68717;53.040;18.488;2023-06-14T01:05:47;101450.69;;;15.75;100.00
53619;BME280;68717;53.040;18.488;2023-06-14T01:06:08;101448.84;;;15.76;100.00
53619;BME280;68717;53.040;18.488;2023-06-14T01:06:32;101450.69;;;15.75;100.00
53619;BME280;68717;53.040;18.488;2023-06-14T01:06:53;101447.00;;;15.76;100.00
53619;BME280;68717;53.040;18.488;2023-06-14T01:07:23;101451.53;;;15.76;100.00
53619;BME280;68717;53.040;18.488;2023-06-14T01:07:46;101452.41;;;15.76;100.00
53619;BME280;68717;53.040;18.488;2023-06-14T01:08:14;101457.81;;;15.76;100.00
53619;BME280;68717;53.040;18.488;2023-06-14T01:08:42;101457.81;;;15.76;100.00
53619;BME280;68717;53.040;18.488;2023-06-14T01:09:06;101456.09;;;15.75;100.00
53619;BME280;68717;53.040;18.488;2023-06-14T01:09:28;101458.09;;;15.73;100.00
53619;BME280;68717;53.040;18.488;2023-06-14T01:09:49;101454.56;;;15.73;100.00
53619;BME280;68717;53.040;18.488;2023-06-14T01:10:27;101456.41;;;15.72;100.00
53619;BME280;68717;53.040;18.488;2023-06-14T01:10:47;101454.69;;;15.71;100.00
53619;BME280;68717;53.040;18.488;2023-06-14T01:11:09;101452.13;;;15.70;100.00
53619;BME280;68717;53.040;18.488;2023-06-14T01:11:28;101455.84;;;15.69;100.00
53619;BME280;68717;53.040;18.488;2023-06-14T01:11:49;101448.59;;;15.69;100.00